This is the latest recevied weather packets stored in our database for station/object F4JSG-10. If no packets are shown the sender has not sent any weather packets the latest 1 day(s).
| Time | Temp. | Humidity | Pressure | Rain* | Wind** | Luminosity | Snow |
|---|---|---|---|---|---|---|---|
| 1777707327 | 18.89° C | 42% | 995.9 hPa | - | - | - | - |
| 1777707321 | 18.89° C | 42% | 995.9 hPa | - | - | - | - |
| 1777706424 | 17.22° C | 47% | 995.9 hPa | - | - | - | - |
| 1777706421 | 17.22° C | 47% | 995.9 hPa | - | - | - | - |
| 1777705523 | 17.22° C | 46% | 996 hPa | - | - | - | - |
| 1777705520 | 17.22° C | 46% | 996 hPa | - | - | - | - |
| 1777704623 | 15.56° C | 51% | 996.1 hPa | - | - | - | - |
| 1777704620 | 15.56° C | 51% | 996.1 hPa | - | - | - | - |
| 1777703723 | 13.89° C | 55% | 996.1 hPa | - | - | - | - |
| 1777703720 | 13.89° C | 55% | 996.1 hPa | - | - | - | - |
| 1777702823 | 12.78° C | 58% | 996.1 hPa | - | - | - | - |
| 1777702820 | 12.78° C | 58% | 996.1 hPa | - | - | - | - |
| 1777701923 | 11.67° C | 58% | 996.1 hPa | - | - | - | - |
| 1777701920 | 11.67° C | 58% | 996.1 hPa | - | - | - | - |
| 1777701023 | 11.11° C | 59% | 996.2 hPa | - | - | - | - |
| 1777701020 | 11.11° C | 59% | 996.2 hPa | - | - | - | - |
| 1777700122 | 10° C | 65% | 996.1 hPa | - | - | - | - |
| 1777700119 | 10° C | 65% | 996.1 hPa | - | - | - | - |
| 1777699222 | 9.44° C | 64% | 996.1 hPa | - | - | - | - |
| 1777699219 | 9.44° C | 64% | 996.1 hPa | - | - | - | - |
| 1777698325 | 8.89° C | 67% | 996 hPa | - | - | - | - |
| 1777698319 | 8.89° C | 67% | 996 hPa | - | - | - | - |
* Rain since midnight (hover to see other rain measurements)
** Current wind speed in m/s (hover to see current wind gust speed)